< Typhoon 197808 1978 Season Typhoon 197810 >
Typhoon 197809 (AGNES)
General InformationTrack Information on Google MapsDetailed Wind Information || Disaster Info.ResourceGoogle EarthGE AnimationAtom FeedGeoJSON
Detalied Best Track (Time Zone = UTC)
Year Month Day Hour Lat. Long. Pressure (hPa) Wind (kt) Class Image Chart
1978 7 22 06 17.8 114.0 1002 0 2 -- Chart
1978 7 22 12 17.5 114.0 1002 0 2 -- Chart
1978 7 22 18 17.0 114.0 1002 0 2 -- Chart
1978 7 23 00 16.7 114.0 1000 0 2 -- Chart
1978 7 23 06 16.5 114.0 1000 0 2 -- Chart
1978 7 23 12 16.3 114.0 1000 0 2 -- Chart
1978 7 23 18 16.0 114.0 1000 0 2 -- Chart
1978 7 24 00 16.0 114.5 1000 0 2 -- Chart
1978 7 24 06 17.0 114.6 1000 0 2 -- Chart
1978 7 24 12 17.9 115.1 1000 0 2 -- Chart
1978 7 24 18 18.9 115.7 998 0 2 -- Chart
1978 7 25 00 20.0 116.0 996 0 2 -- Chart
1978 7 25 06 20.3 115.7 992 0 2 -- Chart
1978 7 25 12 20.7 115.5 992 0 2 -- Chart
1978 7 25 18 21.1 115.2 990 35 3 -- Chart
1978 7 26 00 21.5 114.8 985 45 3 -- Chart
1978 7 26 06 21.5 114.4 985 45 3 -- Chart
1978 7 26 12 21.3 114.2 980 50 4 -- Chart
1978 7 26 18 21.3 113.8 980 55 4 -- Chart
1978 7 27 00 21.3 113.3 980 55 4 -- Chart
1978 7 27 06 21.3 112.8 980 50 4 -- Chart
1978 7 27 12 21.3 112.3 980 50 4 -- Chart
1978 7 27 18 21.1 112.0 985 50 4 -- Chart
1978 7 28 00 20.9 111.9 985 50 4 -- Chart
1978 7 28 06 20.8 111.8 985 50 4 -- Chart
1978 7 28 12 20.4 112.0 985 50 4 -- Chart
1978 7 28 18 20.4 112.4 985 50 4 -- Chart
1978 7 29 00 20.5 112.9 985 50 4 -- Chart
1978 7 29 06 20.8 113.7 985 50 4 -- Chart
1978 7 29 12 21.5 114.4 985 50 4 -- Chart
1978 7 29 18 22.2 114.5 985 50 4 -- Chart
1978 7 30 00 22.8 114.6 990 45 3 -- Chart
1978 7 30 06 23.5 114.8 992 35 3 -- Chart
1978 7 30 12 24.2 115.0 994 0 2 -- Chart
1978 7 30 18 24.0 117.0 996 0 2 -- Chart
1978 7 31 00 24.0 119.0 996 0 2 -- Chart
Japan Meteorological Agency Best Track Data | Correction Date : 1992-10-21
< Typhoon 197808 1978 Season Typhoon 197810 >

Help